createdAt,value
2023-03-29T00:01:35.582Z,17.1
2023-03-29T00:03:15.803Z,17.1
2023-03-29T00:05:15.789Z,17
2023-03-29T00:06:42.072Z,17
2023-03-29T00:09:15.819Z,17
2023-03-29T00:11:15.828Z,17
2023-03-29T00:13:15.718Z,17
2023-03-29T00:15:15.733Z,17
2023-03-29T00:17:15.709Z,17.1
2023-03-29T00:19:15.720Z,17
2023-03-29T00:21:15.689Z,17
2023-03-29T00:23:15.702Z,17
2023-03-29T00:25:15.690Z,17
2023-03-29T00:27:15.687Z,17
2023-03-29T00:29:15.709Z,17
2023-03-29T00:31:15.708Z,17
2023-03-29T00:33:15.720Z,16.9
2023-03-29T00:35:15.686Z,17.1
2023-03-29T00:37:15.687Z,17
2023-03-29T00:39:15.700Z,16.9
2023-03-29T00:41:15.726Z,16.9
2023-03-29T00:43:15.707Z,16.8
2023-03-29T00:45:15.693Z,16.8
2023-03-29T00:47:15.685Z,16.9
2023-03-29T00:49:15.678Z,16.8
2023-03-29T00:51:15.669Z,16.8
2023-03-29T00:53:15.673Z,16.8
2023-03-29T00:55:15.693Z,16.7
2023-03-29T00:57:15.645Z,16.8
2023-03-29T00:59:15.653Z,16.8
2023-03-29T01:01:15.674Z,16.7
2023-03-29T01:03:15.750Z,16.7
2023-03-29T01:05:15.653Z,16.7
2023-03-29T01:07:15.693Z,16.7
2023-03-29T01:09:15.665Z,16.7
2023-03-29T01:11:22.234Z,16.6
2023-03-29T01:13:45.528Z,16.6
2023-03-29T01:15:15.617Z,16.6
2023-03-29T01:17:15.659Z,16.6
2023-03-29T01:19:15.644Z,16.6
2023-03-29T01:21:15.646Z,16.6
2023-03-29T01:23:15.641Z,16.6
2023-03-29T01:25:15.645Z,16.6
2023-03-29T01:27:15.655Z,16.6
2023-03-29T01:29:15.628Z,16.6
2023-03-29T01:31:15.646Z,16.6
2023-03-29T01:33:15.628Z,16.6
2023-03-29T01:35:15.623Z,16.6
2023-03-29T01:37:15.638Z,16.7
2023-03-29T01:39:15.616Z,16.6
2023-03-29T01:41:15.631Z,16.6
2023-03-29T01:43:15.667Z,16.6
2023-03-29T01:45:15.549Z,16.6
2023-03-29T01:47:15.616Z,16.6
2023-03-29T01:48:30.428Z,16.6
2023-03-29T01:51:15.599Z,16.6
2023-03-29T01:53:15.609Z,16.6
2023-03-29T01:55:15.588Z,16.5
2023-03-29T01:57:23.232Z,16.5
2023-03-29T01:59:15.608Z,16.4
2023-03-29T02:01:15.654Z,16.4
2023-03-29T02:03:15.679Z,16.3
2023-03-29T02:05:15.609Z,16.3
2023-03-29T02:07:15.585Z,16.4
2023-03-29T02:09:15.594Z,16.3
2023-03-29T02:11:15.589Z,16.3
2023-03-29T02:13:15.580Z,16.2
2023-03-29T02:15:15.596Z,16.2
2023-03-29T02:17:15.575Z,16.2
2023-03-29T02:19:15.578Z,16.2
2023-03-29T02:21:15.582Z,16.1
2023-03-29T02:23:15.588Z,16
2023-03-29T02:24:56.317Z,16
2023-03-29T02:25:15.522Z,16
2023-03-29T02:27:15.563Z,16
2023-03-29T02:28:59.994Z,16
2023-03-29T02:29:15.519Z,15.8
2023-03-29T02:31:15.590Z,15.7
2023-03-29T02:33:15.550Z,15.6
2023-03-29T02:35:15.575Z,15.5
2023-03-29T02:37:15.594Z,15.4
2023-03-29T02:39:15.543Z,15.3
2023-03-29T02:41:15.558Z,15.2
2023-03-29T02:43:15.149Z,15.2
2023-03-29T02:43:15.528Z,15.1
2023-03-29T02:45:09.115Z,15.1
2023-03-29T02:45:15.520Z,15.1
2023-03-29T02:47:15.537Z,15.1
2023-03-29T02:49:15.552Z,14.9
2023-03-29T02:51:16.310Z,14.9
2023-03-29T02:53:10.748Z,14.9
2023-03-29T02:53:15.460Z,14.8
2023-03-29T02:54:24.056Z,14.8
2023-03-29T02:57:15.554Z,14.7
2023-03-29T02:59:15.533Z,14.6
2023-03-29T03:01:56.550Z,14.5
2023-03-29T03:03:15.710Z,14.4
2023-03-29T03:05:43.108Z,14.3
2023-03-29T03:07:15.558Z,14.4
2023-03-29T03:09:15.597Z,14.3
2023-03-29T03:10:08.882Z,14.3
2023-03-29T03:11:15.535Z,14.2
2023-03-29T03:13:15.515Z,14.2
2023-03-29T03:15:15.516Z,14.1
2023-03-29T03:17:15.513Z,14.2
2023-03-29T03:19:15.492Z,14.1
2023-03-29T03:21:15.517Z,14
2023-03-29T03:23:15.500Z,13.9
2023-03-29T03:25:15.501Z,13.8
2023-03-29T03:27:15.487Z,13.9
2023-03-29T03:29:15.471Z,13.8
2023-03-29T03:31:15.528Z,13.8
2023-03-29T03:33:15.489Z,13.7
2023-03-29T03:35:15.495Z,13.7
2023-03-29T03:37:15.515Z,13.7
2023-03-29T03:39:15.484Z,13.6
2023-03-29T03:41:15.473Z,13.6
2023-03-29T03:42:57.721Z,13.6
2023-03-29T03:43:15.401Z,13.6
2023-03-29T03:45:15.457Z,13.6
2023-03-29T03:47:05.706Z,13.6
2023-03-29T03:49:15.507Z,13.6
2023-03-29T03:51:15.448Z,13.6
2023-03-29T03:53:15.453Z,13.5
2023-03-29T03:55:15.479Z,13.5
2023-03-29T03:57:15.476Z,13.5
2023-03-29T03:59:15.458Z,13.5
2023-03-29T04:01:15.443Z,13.4
2023-03-29T04:03:15.514Z,13.4
2023-03-29T04:05:15.449Z,13.3
2023-03-29T04:07:15.497Z,13.4
2023-03-29T04:09:15.453Z,13.4
2023-03-29T04:11:15.467Z,13.3
2023-03-29T04:13:15.425Z,13.3
2023-03-29T04:15:15.434Z,13.3
2023-03-29T04:17:15.453Z,13.4
2023-03-29T04:19:15.448Z,13.3
2023-03-29T04:21:15.452Z,13.3
2023-03-29T04:23:15.442Z,13.3
2023-03-29T04:25:15.470Z,13.4
2023-03-29T04:27:15.528Z,13.3
2023-03-29T04:29:15.546Z,13.2
2023-03-29T04:31:15.453Z,13.2
2023-03-29T04:32:41.179Z,13.2
2023-03-29T04:35:15.433Z,13.2
2023-03-29T04:37:15.415Z,13.2
2023-03-29T04:38:37.284Z,13.2
2023-03-29T04:41:15.458Z,13.1
2023-03-29T04:43:15.395Z,12.9
2023-03-29T04:45:15.495Z,12.9
2023-03-29T04:47:15.385Z,13
2023-03-29T04:49:15.399Z,13
2023-03-29T04:51:15.429Z,13
2023-03-29T04:53:15.412Z,13
2023-03-29T04:55:15.430Z,13
2023-03-29T04:57:15.449Z,13
2023-03-29T04:59:15.386Z,13.1
2023-03-29T05:01:15.390Z,13
2023-03-29T05:03:15.388Z,13
2023-03-29T05:05:15.400Z,12.9
2023-03-29T05:07:15.459Z,12.9
2023-03-29T05:09:15.376Z,12.9
2023-03-29T05:11:15.373Z,13
2023-03-29T05:13:15.396Z,13
2023-03-29T05:15:15.352Z,12.9
2023-03-29T05:17:54.483Z,13
2023-03-29T05:19:15.366Z,12.9
2023-03-29T05:21:15.345Z,12.9
2023-03-29T05:23:15.371Z,12.8
2023-03-29T05:25:15.356Z,12.8
2023-03-29T05:27:15.358Z,12.9
2023-03-29T05:29:15.345Z,13
2023-03-29T05:31:16.887Z,12.7
2023-03-29T05:33:15.401Z,12.7
2023-03-29T05:35:12.541Z,12.7
2023-03-29T05:35:15.329Z,12.8
2023-03-29T05:37:15.354Z,12.7
2023-03-29T05:39:15.404Z,12.7
2023-03-29T05:41:15.401Z,12.6
2023-03-29T05:43:15.327Z,12.6
2023-03-29T05:45:15.320Z,12.6
2023-03-29T05:47:15.324Z,12.7
2023-03-29T05:49:15.417Z,12.6
2023-03-29T05:51:15.295Z,12.6
2023-03-29T05:53:15.318Z,12.5
2023-03-29T05:55:15.305Z,12.6
2023-03-29T05:57:15.314Z,12.7
2023-03-29T05:59:15.286Z,12.7
2023-03-29T06:00:30.150Z,12.7
2023-03-29T06:01:15.335Z,12.6
2023-03-29T06:03:21.008Z,12.7
2023-03-29T06:04:20.121Z,12.7
2023-03-29T06:05:15.303Z,12.6
2023-03-29T06:07:15.313Z,12.7
2023-03-29T06:09:15.308Z,12.6
2023-03-29T06:11:15.348Z,12.6
2023-03-29T06:13:15.318Z,12.6
2023-03-29T06:15:15.241Z,12.6
2023-03-29T06:17:15.354Z,12.6
2023-03-29T06:19:15.301Z,12.8
2023-03-29T06:21:15.269Z,12.8
2023-03-29T06:23:15.283Z,12.8
2023-03-29T06:25:15.298Z,12.7
2023-03-29T06:27:15.276Z,12.6
2023-03-29T06:29:15.283Z,12.5
2023-03-29T06:31:15.286Z,12.5
2023-03-29T06:33:15.333Z,12.5
2023-03-29T06:35:15.251Z,12.6
2023-03-29T06:37:15.278Z,12.7
2023-03-29T06:39:15.274Z,12.6
2023-03-29T06:41:15.254Z,12.6
2023-03-29T06:43:15.286Z,12.5
2023-03-29T06:45:15.232Z,12.4
2023-03-29T06:46:37.213Z,12.4
2023-03-29T06:49:15.241Z,12.4
2023-03-29T06:51:15.235Z,12.4
2023-03-29T06:53:15.269Z,12.3
2023-03-29T06:55:15.274Z,12.3
2023-03-29T06:57:15.267Z,12.4
2023-03-29T06:59:15.211Z,12.3
2023-03-29T07:01:15.325Z,12.3
2023-03-29T07:03:15.245Z,12.3
2023-03-29T07:05:15.228Z,12.2
2023-03-29T07:07:15.259Z,12.3
2023-03-29T07:09:16.621Z,12.2
2023-03-29T07:11:15.239Z,12.2
2023-03-29T07:13:15.221Z,12.2
2023-03-29T07:15:15.218Z,12.3
2023-03-29T07:17:15.206Z,12.4
2023-03-29T07:19:15.206Z,12.3
2023-03-29T07:21:15.207Z,12.3
2023-03-29T07:23:15.214Z,12.3
2023-03-29T07:25:15.215Z,12.3
2023-03-29T07:27:15.213Z,12.4
2023-03-29T07:29:15.204Z,12.4
2023-03-29T07:31:15.191Z,12.4
2023-03-29T07:33:35.651Z,12.3
2023-03-29T07:35:15.196Z,12.3
2023-03-29T07:37:15.211Z,12.3
2023-03-29T07:39:15.159Z,12.2
2023-03-29T07:41:15.164Z,12.1
2023-03-29T07:43:15.205Z,12.1
2023-03-29T07:45:15.152Z,12.1
2023-03-29T07:47:15.176Z,12.1
2023-03-29T07:49:15.179Z,12.1
2023-03-29T07:51:15.153Z,12
2023-03-29T07:53:15.157Z,12
2023-03-29T07:55:15.191Z,12
2023-03-29T07:57:15.168Z,12.1
2023-03-29T07:59:15.151Z,12.1
2023-03-29T08:01:16.520Z,12
2023-03-29T08:03:15.188Z,12
2023-03-29T08:04:26.684Z,12
2023-03-29T08:05:16.377Z,12
2023-03-29T08:07:16.428Z,12
2023-03-29T08:09:15.132Z,12
2023-03-29T08:11:15.148Z,11.9
2023-03-29T08:13:15.143Z,11.9
2023-03-29T08:15:15.212Z,12
2023-03-29T08:17:15.153Z,12
2023-03-29T08:19:15.116Z,12
2023-03-29T08:21:15.119Z,11.9
2023-03-29T08:23:15.138Z,12.1
2023-03-29T08:25:15.162Z,12.1
2023-03-29T08:26:45.392Z,12.1
2023-03-29T08:29:42.510Z,12.2
2023-03-29T08:31:15.176Z,12.2
2023-03-29T08:33:15.153Z,12.2
2023-03-29T08:35:15.142Z,12.2
2023-03-29T08:37:15.144Z,12.3
2023-03-29T08:39:15.828Z,12.3
2023-03-29T08:41:15.112Z,12.2
2023-03-29T08:43:15.111Z,12.2
2023-03-29T08:45:15.168Z,12.1
2023-03-29T08:47:15.087Z,12.1
2023-03-29T08:49:15.112Z,12.1
2023-03-29T08:51:15.096Z,12.1
2023-03-29T08:53:19.310Z,12.1
2023-03-29T08:55:15.095Z,12
2023-03-29T08:57:02.597Z,12
2023-03-29T08:58:44.763Z,11.9
2023-03-29T08:59:15.077Z,11.8
2023-03-29T09:01:15.141Z,11.8
2023-03-29T09:03:15.181Z,11.7
2023-03-29T09:05:15.074Z,11.6
2023-03-29T09:07:15.074Z,11.7
2023-03-29T09:09:15.112Z,11.6
2023-03-29T09:11:15.092Z,11.6
2023-03-29T09:13:15.083Z,11.6
2023-03-29T09:15:15.061Z,11.5
2023-03-29T09:17:15.115Z,11.5
2023-03-29T09:19:15.410Z,11.4
2023-03-29T09:21:15.066Z,11.3
2023-03-29T09:23:15.031Z,11.2
2023-03-29T09:25:15.056Z,11.2
2023-03-29T09:27:14.977Z,11.3
2023-03-29T09:29:15.071Z,11.3
2023-03-29T09:31:15.074Z,11.1
2023-03-29T09:33:15.017Z,11.1
2023-03-29T09:35:15.069Z,11
2023-03-29T09:37:15.046Z,10.8
2023-03-29T09:39:43.909Z,10.8
2023-03-29T09:41:15.024Z,10.8
2023-03-29T09:43:15.055Z,10.9
2023-03-29T09:45:15.015Z,10.8
2023-03-29T09:47:15.018Z,10.9
2023-03-29T09:49:17.198Z,10.8
2023-03-29T09:51:15.044Z,10.8
2023-03-29T09:53:15.082Z,10.8
2023-03-29T09:55:15.028Z,10.8
2023-03-29T09:57:15.053Z,10.8
2023-03-29T09:59:14.998Z,10.7
2023-03-29T10:01:29.398Z,10.7
2023-03-29T10:01:36.846Z,10.7
2023-03-29T10:03:15.117Z,10.8
2023-03-29T10:05:14.997Z,10.7
2023-03-29T10:07:14.991Z,10.8
2023-03-29T10:09:14.991Z,10.9
2023-03-29T10:11:15.008Z,10.8
2023-03-29T10:13:15.023Z,10.7
2023-03-29T10:15:23.185Z,10.8
2023-03-29T10:17:14.938Z,10.8
2023-03-29T10:19:14.972Z,10.6
2023-03-29T10:21:15.024Z,10.7
2023-03-29T10:23:14.970Z,10.7
2023-03-29T10:25:14.958Z,10.7
2023-03-29T10:27:14.991Z,10.7
2023-03-29T10:29:14.989Z,10.7
2023-03-29T10:31:16.687Z,10.8
2023-03-29T10:33:14.985Z,10.7
2023-03-29T10:35:14.979Z,10.6
2023-03-29T10:37:15.060Z,10.6
2023-03-29T10:39:14.929Z,10.7
2023-03-29T10:40:34.179Z,10.7
2023-03-29T10:41:14.981Z,10.7
2023-03-29T10:43:14.996Z,10.5
2023-03-29T10:45:14.889Z,10.4
2023-03-29T10:47:14.936Z,10.7
2023-03-29T10:49:14.923Z,10.6
2023-03-29T10:50:02.490Z,10.6
2023-03-29T10:51:47.558Z,10.5
2023-03-29T10:53:14.994Z,10.3
2023-03-29T10:55:29.181Z,10.3
2023-03-29T10:57:14.932Z,10.4
2023-03-29T10:59:14.932Z,10.3
2023-03-29T11:01:14.979Z,10.3
2023-03-29T11:03:16.200Z,10.3
2023-03-29T11:05:14.967Z,10.2
2023-03-29T11:07:14.910Z,10.4
2023-03-29T11:09:14.936Z,10.4
2023-03-29T11:11:14.901Z,10.5
2023-03-29T11:13:14.925Z,10.3
2023-03-29T11:15:15.277Z,10.4
2023-03-29T11:17:14.846Z,10.6
2023-03-29T11:19:14.902Z,10.6
2023-03-29T11:21:14.921Z,10.5
2023-03-29T11:23:14.913Z,10.7
2023-03-29T11:25:14.872Z,10.7
2023-03-29T11:27:14.879Z,10.8
2023-03-29T11:29:14.875Z,10.7
2023-03-29T11:31:14.916Z,10.7
2023-03-29T11:33:14.911Z,10.6
2023-03-29T11:35:14.870Z,10.6
2023-03-29T11:37:14.896Z,10.7
2023-03-29T11:39:14.892Z,10.7
2023-03-29T11:41:14.879Z,10.7
2023-03-29T11:43:14.873Z,10.9
2023-03-29T11:45:14.861Z,10.8
2023-03-29T11:47:14.852Z,10.7
2023-03-29T11:49:14.879Z,10.7
2023-03-29T11:51:14.877Z,10.9
2023-03-29T11:53:14.876Z,10.9
2023-03-29T11:55:14.889Z,10.9
2023-03-29T11:57:14.876Z,11
2023-03-29T11:59:14.843Z,10.8
2023-03-29T12:01:14.904Z,10.9
2023-03-29T12:03:15.052Z,11
2023-03-29T12:05:14.835Z,11.1
2023-03-29T12:07:14.824Z,11.2
2023-03-29T12:09:16.704Z,11.3
2023-03-29T12:11:14.830Z,11.3
2023-03-29T12:13:14.831Z,11.3
2023-03-29T12:15:16.143Z,11.5
2023-03-29T12:17:14.848Z,11.4
2023-03-29T12:19:14.831Z,11.4
2023-03-29T12:21:14.833Z,11.1
2023-03-29T12:22:34.599Z,11.1
2023-03-29T12:25:14.836Z,11.3
2023-03-29T12:27:14.809Z,11.4
2023-03-29T12:29:14.827Z,11.3
2023-03-29T12:31:14.874Z,11.4
2023-03-29T12:32:45.878Z,11.4
2023-03-29T12:35:14.869Z,11.4
2023-03-29T12:37:14.836Z,11.5
2023-03-29T12:39:14.936Z,11.4
2023-03-29T12:41:14.900Z,11.4
2023-03-29T12:43:14.897Z,11.3
2023-03-29T12:45:15.658Z,11.4
2023-03-29T12:47:14.860Z,11.5
2023-03-29T12:49:14.832Z,11.6
2023-03-29T12:51:14.806Z,11.5
2023-03-29T12:53:14.778Z,11.6
2023-03-29T12:55:36.417Z,11.6
2023-03-29T12:55:43.855Z,11.6
2023-03-29T12:57:14.877Z,11.7
2023-03-29T12:59:14.818Z,11.7
2023-03-29T13:01:14.913Z,11.8
2023-03-29T13:03:14.813Z,12
2023-03-29T13:05:14.881Z,12.1
2023-03-29T13:07:43.190Z,12.2
2023-03-29T13:09:14.800Z,12.2
2023-03-29T13:11:14.808Z,12
2023-03-29T13:13:14.879Z,11.9
2023-03-29T13:15:16.650Z,12
2023-03-29T13:17:18.582Z,12.3
2023-03-29T13:19:14.885Z,12.4
2023-03-29T13:21:14.804Z,12.6
2023-03-29T13:23:16.993Z,12.6
2023-03-29T13:25:14.882Z,12.8
2023-03-29T13:27:31.531Z,13.2
2023-03-29T13:29:14.853Z,13.5
2023-03-29T13:31:14.886Z,13.7
2023-03-29T13:33:14.816Z,13.9
2023-03-29T13:35:22.753Z,14
2023-03-29T13:37:14.860Z,14.2
2023-03-29T13:39:14.825Z,14.3
2023-03-29T13:41:14.845Z,14.7
2023-03-29T13:43:14.873Z,14.9
2023-03-29T13:45:16.569Z,15.2
2023-03-29T13:47:14.784Z,15.2
2023-03-29T13:49:14.819Z,15.1
2023-03-29T13:51:14.791Z,15.4
2023-03-29T13:53:14.858Z,15.7
2023-03-29T13:55:14.773Z,15.3
2023-03-29T13:57:14.821Z,15.3
2023-03-29T13:59:14.729Z,15
2023-03-29T14:01:14.769Z,15
2023-03-29T14:03:14.727Z,15
2023-03-29T14:05:14.752Z,15
2023-03-29T14:07:14.752Z,15
2023-03-29T14:09:14.678Z,14.9
2023-03-29T14:11:14.734Z,14.7
2023-03-29T14:13:14.827Z,14.9
2023-03-29T14:14:07.233Z,14.9
2023-03-29T14:15:14.836Z,14.8
2023-03-29T14:16:46.107Z,14.8
2023-03-29T14:17:14.775Z,14.6
2023-03-29T14:19:14.737Z,14.8
2023-03-29T14:21:14.720Z,14.6
2023-03-29T14:23:16.107Z,14.7
2023-03-29T14:25:14.700Z,14.8
2023-03-29T14:27:14.765Z,15
2023-03-29T14:29:14.723Z,15.1
2023-03-29T14:31:14.826Z,15.5
2023-03-29T14:33:14.691Z,15.5
2023-03-29T14:35:14.725Z,15.5
2023-03-29T14:37:14.716Z,15.7
2023-03-29T14:39:14.688Z,15.6
2023-03-29T14:41:14.766Z,15.4
2023-03-29T14:43:14.834Z,15.7
2023-03-29T14:45:16.204Z,15.8
2023-03-29T14:47:14.715Z,16
2023-03-29T14:49:14.760Z,15.8
2023-03-29T14:51:14.671Z,16.1
2023-03-29T14:53:14.679Z,15.8
2023-03-29T14:55:14.643Z,15.6
2023-03-29T14:57:14.719Z,15.5
2023-03-29T14:59:14.670Z,15.4
2023-03-29T15:01:14.734Z,15.5
2023-03-29T15:03:14.839Z,15.4
2023-03-29T15:05:14.749Z,15.4
2023-03-29T15:07:14.699Z,15.7
2023-03-29T15:09:14.656Z,15.8
2023-03-29T15:11:14.724Z,15.6
2023-03-29T15:13:14.643Z,15.7
2023-03-29T15:15:14.646Z,15.6
2023-03-29T15:17:14.720Z,15.8
2023-03-29T15:19:14.641Z,15.8
2023-03-29T15:21:14.735Z,16
2023-03-29T15:23:14.634Z,16.2
2023-03-29T15:25:14.659Z,16.2
2023-03-29T15:27:14.739Z,16.3
2023-03-29T15:29:14.751Z,16.5
2023-03-29T15:31:18.166Z,16.7
2023-03-29T15:33:14.840Z,16.5
2023-03-29T15:35:11.440Z,16.5
2023-03-29T15:35:14.673Z,16.1
2023-03-29T15:37:24.927Z,16
2023-03-29T15:39:14.661Z,16.2
2023-03-29T15:41:14.889Z,16.3
2023-03-29T15:43:14.642Z,16.3
2023-03-29T15:45:16.842Z,16.4
2023-03-29T15:47:14.678Z,16.5
2023-03-29T15:49:14.662Z,16.4
2023-03-29T15:51:14.609Z,16.6
2023-03-29T15:52:05.265Z,16.6
2023-03-29T15:53:51.082Z,16.7
2023-03-29T15:55:14.659Z,17
2023-03-29T15:57:14.863Z,17.1
2023-03-29T15:59:14.623Z,17
2023-03-29T16:01:14.681Z,16.9
2023-03-29T16:03:14.740Z,17
2023-03-29T16:05:14.581Z,17
2023-03-29T16:07:14.680Z,16.9
2023-03-29T16:09:14.626Z,17.1
2023-03-29T16:11:14.647Z,17
2023-03-29T16:13:14.593Z,17.2
2023-03-29T16:15:16.715Z,16.9
2023-03-29T16:17:14.635Z,16.8
2023-03-29T16:19:14.578Z,16.9
2023-03-29T16:21:14.633Z,17.1
2023-03-29T16:23:14.616Z,17.2
2023-03-29T16:25:14.597Z,17.3
2023-03-29T16:27:14.622Z,17.4
2023-03-29T16:29:14.568Z,17.9
2023-03-29T16:31:14.580Z,18.1
2023-03-29T16:33:18.975Z,18.2
2023-03-29T16:35:14.596Z,18.3
2023-03-29T16:37:14.551Z,18.4
2023-03-29T16:39:14.721Z,18.3
2023-03-29T16:41:14.631Z,18
2023-03-29T16:43:14.623Z,17.6
2023-03-29T16:45:55.838Z,17.2
2023-03-29T16:47:14.552Z,17.1
2023-03-29T16:49:14.596Z,17.3
2023-03-29T16:51:14.587Z,17.4
2023-03-29T16:53:14.951Z,17.7
2023-03-29T16:55:14.569Z,17.9
2023-03-29T16:57:14.575Z,18
2023-03-29T16:59:14.558Z,18.2
2023-03-29T17:01:14.555Z,18.1
2023-03-29T17:03:14.535Z,18.1
2023-03-29T17:05:14.508Z,17.7
2023-03-29T17:07:14.543Z,17.7
2023-03-29T17:09:14.532Z,17.8
2023-03-29T17:11:14.529Z,17.8
2023-03-29T17:13:14.510Z,17.9
2023-03-29T17:15:14.556Z,18
2023-03-29T17:17:14.583Z,18.1
2023-03-29T17:19:14.551Z,18
2023-03-29T17:21:14.502Z,17.7
2023-03-29T17:23:14.605Z,17.6
2023-03-29T17:25:14.552Z,17.4
2023-03-29T17:27:14.511Z,17.1
2023-03-29T17:29:14.596Z,17.3
2023-03-29T17:31:27.088Z,17.5
2023-03-29T17:33:14.437Z,17.6
2023-03-29T17:35:14.454Z,17.6
2023-03-29T17:37:14.465Z,17.5
2023-03-29T17:39:14.468Z,17.6
2023-03-29T17:41:14.449Z,17.6
2023-03-29T17:43:14.436Z,17.5
2023-03-29T17:44:47.222Z,17.5
2023-03-29T17:45:14.430Z,17.6
2023-03-29T17:47:14.436Z,17.6
2023-03-29T17:49:14.431Z,17.7
2023-03-29T17:51:27.436Z,17.4
2023-03-29T17:53:14.419Z,17.3
2023-03-29T17:55:14.453Z,17.5
2023-03-29T17:57:14.459Z,17.7
2023-03-29T17:59:14.439Z,18
2023-03-29T18:01:14.490Z,18.2
2023-03-29T18:02:42.754Z,18.2
2023-03-29T18:03:14.469Z,18.3
2023-03-29T18:05:14.451Z,18.3
2023-03-29T18:07:14.401Z,18.3
2023-03-29T18:09:14.432Z,18.5
2023-03-29T18:11:14.401Z,18.4
2023-03-29T18:13:14.413Z,18.5
2023-03-29T18:15:14.479Z,18.2
2023-03-29T18:17:14.410Z,18.2
2023-03-29T18:19:14.402Z,18
2023-03-29T18:21:14.417Z,17.9
2023-03-29T18:23:14.392Z,17.8
2023-03-29T18:25:14.396Z,17.6
2023-03-29T18:27:14.436Z,17.5
2023-03-29T18:29:14.380Z,17.5
2023-03-29T18:31:14.378Z,17.4
2023-03-29T18:33:14.413Z,17.4
2023-03-29T18:35:14.424Z,17.5
2023-03-29T18:37:14.361Z,17.5
2023-03-29T18:39:14.368Z,17.4
2023-03-29T18:41:14.411Z,17.3
2023-03-29T18:43:14.386Z,17.3
2023-03-29T18:45:14.312Z,17.4
2023-03-29T18:47:24.719Z,17.6
2023-03-29T18:49:14.412Z,17.9
2023-03-29T18:51:14.387Z,18
2023-03-29T18:53:14.342Z,18.1
2023-03-29T18:55:14.396Z,18.1
2023-03-29T18:57:14.425Z,18.2
2023-03-29T18:59:14.374Z,18.4
2023-03-29T19:01:14.408Z,18.4
2023-03-29T19:03:14.440Z,18.5
2023-03-29T19:05:14.361Z,18.4
2023-03-29T19:07:14.353Z,18.3
2023-03-29T19:09:14.369Z,18.5
2023-03-29T19:11:14.338Z,18.4
2023-03-29T19:13:14.339Z,18.4
2023-03-29T19:15:14.342Z,18.5
2023-03-29T19:17:14.336Z,18.5
2023-03-29T19:19:14.367Z,18.5
2023-03-29T19:21:14.378Z,18.5
2023-03-29T19:23:14.392Z,18.7
2023-03-29T19:24:32.181Z,18.7
2023-03-29T19:27:14.309Z,19.1
2023-03-29T19:28:26.977Z,19.1
2023-03-29T19:29:14.314Z,19.2
2023-03-29T19:31:14.364Z,19.2
2023-03-29T19:33:14.365Z,18.9
2023-03-29T19:35:14.356Z,18.9
2023-03-29T19:37:14.334Z,18.8
2023-03-29T19:39:14.334Z,18.7
2023-03-29T19:41:14.317Z,18.6
2023-03-29T19:43:14.295Z,18.6
2023-03-29T19:45:14.351Z,18.6
2023-03-29T19:47:14.306Z,18.5
2023-03-29T19:49:36.178Z,18.6
2023-03-29T19:51:14.282Z,18.4
2023-03-29T19:53:14.291Z,18.5
2023-03-29T19:55:14.279Z,18.5
2023-03-29T19:57:14.308Z,18.3
2023-03-29T19:59:14.281Z,18.6
2023-03-29T20:01:14.290Z,18.5
2023-03-29T20:03:14.291Z,18.6
2023-03-29T20:05:14.272Z,18.9
2023-03-29T20:07:14.291Z,19.2
2023-03-29T20:09:14.285Z,19.5
2023-03-29T20:11:14.338Z,19.7
2023-03-29T20:13:15.762Z,19.8
2023-03-29T20:15:14.252Z,19.8
2023-03-29T20:17:10.640Z,19.8
2023-03-29T20:17:14.274Z,19.9
2023-03-29T20:19:14.320Z,20.4
2023-03-29T20:21:14.242Z,20
2023-03-29T20:23:14.330Z,19.8
2023-03-29T20:25:14.252Z,19.7
2023-03-29T20:27:14.271Z,19.9
2023-03-29T20:29:14.238Z,19.7
2023-03-29T20:31:14.283Z,19.7
2023-03-29T20:33:14.303Z,19.8
2023-03-29T20:35:14.258Z,19.9
2023-03-29T20:37:14.256Z,19.9
2023-03-29T20:39:14.260Z,20.2
2023-03-29T20:41:47.996Z,20.2
2023-03-29T20:42:47.210Z,20.2
2023-03-29T20:44:58.302Z,20
2023-03-29T20:46:47.209Z,20
2023-03-29T20:48:47.208Z,19.9
2023-03-29T20:50:47.216Z,19.8
2023-03-29T20:52:47.194Z,19.9
2023-03-29T20:54:47.175Z,19.9
2023-03-29T20:56:47.216Z,20
2023-03-29T20:58:47.209Z,20.3
2023-03-29T21:00:47.192Z,20.4
2023-03-29T21:02:47.324Z,20.5
2023-03-29T21:04:06.633Z,20.5
2023-03-29T21:04:47.180Z,20.4
2023-03-29T21:06:47.176Z,20.4
2023-03-29T21:08:47.193Z,20.2
2023-03-29T21:10:47.207Z,20.2
2023-03-29T21:12:47.213Z,20.3
2023-03-29T21:14:47.207Z,20.3
2023-03-29T21:16:47.197Z,20.3
2023-03-29T21:18:26.254Z,20.3
2023-03-29T21:20:47.158Z,20
2023-03-29T21:22:47.182Z,19.9
2023-03-29T21:24:47.166Z,20
2023-03-29T21:26:47.216Z,20
2023-03-29T21:28:47.157Z,19.8
2023-03-29T21:30:47.144Z,19.9
2023-03-29T21:32:47.219Z,19.8
2023-03-29T21:34:47.151Z,19.6
2023-03-29T21:36:47.188Z,19.5
2023-03-29T21:38:47.136Z,19.5
2023-03-29T21:40:47.118Z,19.5
2023-03-29T21:42:47.125Z,19.4
2023-03-29T21:44:47.243Z,19.3
2023-03-29T21:46:47.134Z,19.3
2023-03-29T21:48:47.140Z,19.4
2023-03-29T21:50:47.108Z,19.4
2023-03-29T21:52:56.917Z,19.3
2023-03-29T21:54:09.720Z,19.3
2023-03-29T21:56:47.117Z,19
2023-03-29T21:58:47.114Z,18.9
2023-03-29T22:00:47.197Z,18.6
2023-03-29T22:02:47.173Z,18.5
2023-03-29T22:04:47.120Z,18.3
2023-03-29T22:06:47.132Z,18
2023-03-29T22:08:47.114Z,18
2023-03-29T22:10:47.124Z,17.9
2023-03-29T22:12:47.151Z,17.9
2023-03-29T22:14:47.116Z,17.8
2023-03-29T22:16:47.172Z,17.8
2023-03-29T22:18:47.126Z,17.9
2023-03-29T22:20:47.184Z,17.7
2023-03-29T22:22:47.121Z,17.6
2023-03-29T22:23:48.853Z,17.6
2023-03-29T22:24:47.113Z,17.5
2023-03-29T22:26:33.843Z,17.5
2023-03-29T22:26:47.204Z,17.3
2023-03-29T22:28:47.207Z,17.4
2023-03-29T22:30:47.245Z,17.2
2023-03-29T22:32:47.258Z,17.1
2023-03-29T22:34:47.154Z,17
2023-03-29T22:36:47.158Z,16.9
2023-03-29T22:38:47.164Z,16.9
2023-03-29T22:40:47.147Z,16.8
2023-03-29T22:42:47.163Z,16.7
2023-03-29T22:44:47.164Z,16.5
2023-03-29T22:46:47.196Z,16.4
2023-03-29T22:48:47.111Z,16.4
2023-03-29T22:50:47.103Z,16.3
2023-03-29T22:52:47.122Z,16.2
2023-03-29T22:54:47.103Z,16.1
2023-03-29T22:56:47.108Z,16
2023-03-29T22:58:47.116Z,16
2023-03-29T23:00:47.186Z,15.8
2023-03-29T23:02:47.143Z,15.7
2023-03-29T23:04:47.101Z,15.5
2023-03-29T23:06:47.104Z,15.4
2023-03-29T23:08:47.198Z,15.4
2023-03-29T23:10:47.136Z,15.2
2023-03-29T23:12:47.158Z,15.1
2023-03-29T23:14:47.158Z,15
2023-03-29T23:16:47.231Z,14.9
2023-03-29T23:17:28.971Z,14.9
2023-03-29T23:18:47.026Z,14.8
2023-03-29T23:20:47.171Z,14.7
2023-03-29T23:22:47.053Z,14.6
2023-03-29T23:24:47.049Z,14.5
2023-03-29T23:26:47.033Z,14.4
2023-03-29T23:28:47.034Z,14.3
2023-03-29T23:30:47.030Z,14.2
2023-03-29T23:32:47.100Z,14.1
2023-03-29T23:34:47.015Z,14
2023-03-29T23:36:30.240Z,14
2023-03-29T23:38:47.063Z,13.9
2023-03-29T23:40:14.013Z,13.9
2023-03-29T23:42:47.022Z,13.7
2023-03-29T23:44:47.031Z,13.6
2023-03-29T23:45:43.071Z,13.6
2023-03-29T23:46:54.760Z,13.6
2023-03-29T23:48:48.719Z,13.6
2023-03-29T23:50:47.004Z,13.5
2023-03-29T23:52:47.013Z,13.4
2023-03-29T23:54:57.629Z,13.3
2023-03-29T23:56:47.037Z,13.3
2023-03-29T23:58:46.967Z,13.3
